Thursday, January 29, 2015, 7:18 AM EST

KOKV, Winchester Regional

Location: Winchester, VA, United States Lat: 39.15
Local Time: 7:18 AM EST (12:18 GMT) Lon: -78.15
Time Zone: US/Eastern Elev: 728 ft

Show me the last for .
Show Decoded

2015-01-29 06:55 METAR KOKV 291155Z AUTO 00000KT 10SM CLR M06/M11 A3027 RMK AO2 =
2015-01-29 06:35 METAR KOKV 291135Z AUTO 00000KT 10SM CLR M06/M12 A3027 RMK AO2 =
2015-01-29 06:15 METAR KOKV 291115Z AUTO 00000KT 10SM SCT120 M06/M11 A3027 RMK AO2 =
2015-01-29 05:55 METAR KOKV 291055Z AUTO 00000KT 10SM SCT120 M07/M11 A3028 RMK AO2 =
2015-01-29 05:35 METAR KOKV 291035Z AUTO 00000KT 10SM CLR M08/M12 A3028 RMK AO2 =
2015-01-29 05:15 METAR KOKV 291015Z AUTO 00000KT 10SM CLR M08/M12 A3028 RMK AO2 =
2015-01-29 04:35 METAR KOKV 290935Z AUTO 00000KT 10SM CLR M08/M12 A3029 RMK AO2 =
2015-01-29 04:15 METAR KOKV 290915Z AUTO 00000KT 10SM CLR M08/M12 A3029 RMK AO2 =
2015-01-29 03:55 METAR KOKV 290855Z AUTO 00000KT 10SM CLR M08/M13 A3030 RMK AO2 =
2015-01-29 03:35 METAR KOKV 290835Z AUTO 00000KT 10SM CLR M07/M13 A3031 RMK AO2 =
2015-01-29 03:15 METAR KOKV 290815Z AUTO 00000KT 10SM CLR M08/M14 A3031 RMK AO2 =
2015-01-29 02:55 METAR KOKV 290755Z AUTO 00000KT 10SM CLR M07/M14 A3031 RMK AO2 =
2015-01-29 02:35 METAR KOKV 290735Z AUTO 00000KT 10SM CLR M07/M14 A3031 RMK AO2 =
2015-01-29 02:15 METAR KOKV 290715Z AUTO 00000KT 10SM CLR M07/M14 A3031 RMK AO2 =
2015-01-29 01:55 METAR KOKV 290655Z AUTO 00000KT 10SM CLR M07/M14 A3031 RMK AO2 =
2015-01-29 01:35 METAR KOKV 290635Z AUTO 00000KT 10SM CLR M08/M15 A3031 RMK AO2 =
2015-01-29 01:15 METAR KOKV 290615Z AUTO 00000KT 10SM CLR M07/M14 A3031 RMK AO2 =
2015-01-29 00:55 METAR KOKV 290555Z AUTO 00000KT 10SM CLR M07/M14 A3032 RMK AO2 =
2015-01-29 00:35 METAR KOKV 290535Z AUTO 00000KT 10SM CLR M07/M14 A3032 RMK AO2 =
2015-01-29 00:15 METAR KOKV 290515Z AUTO 00000KT 10SM CLR M08/M13 A3032 RMK AO2 =
2015-01-28 23:55 METAR KOKV 290455Z AUTO 00000KT 10SM CLR M08/M13 A3033 RMK AO2 =
2015-01-28 23:35 METAR KOKV 290435Z AUTO 00000KT 10SM CLR M06/M14 A3033 RMK AO2 =
2015-01-28 23:15 METAR KOKV 290415Z AUTO 00000KT 10SM CLR M07/M13 A3033 RMK AO2 =
2015-01-28 22:55 METAR KOKV 290355Z AUTO 00000KT 10SM CLR M06/M13 A3033 RMK AO2 =
2015-01-28 22:35 METAR KOKV 290335Z AUTO 00000KT 10SM CLR M06/M14 A3033 RMK AO2 =
2015-01-28 22:15 METAR KOKV 290315Z AUTO 00000KT 10SM CLR M05/M15 A3033 RMK AO2 =
2015-01-28 21:55 METAR KOKV 290255Z AUTO 30005KT 10SM CLR M04/M16 A3033 RMK AO2 =
2015-01-28 21:35 METAR KOKV 290235Z AUTO 00000KT 10SM CLR M05/M15 A3032 RMK AO2 =
2015-01-28 21:15 METAR KOKV 290215Z AUTO 00000KT 10SM CLR M05/M15 A3032 RMK AO2 =
2015-01-28 20:55 METAR KOKV 290155Z AUTO 00000KT 10SM CLR M04/M16 A3032 RMK AO2 =
2015-01-28 20:35 METAR KOKV 290135Z AUTO 00000KT 10SM CLR M05/M14 A3032 RMK AO2 =
2015-01-28 20:15 METAR KOKV 290115Z AUTO 00000KT 10SM CLR M03/M15 A3031 RMK AO2 =
2015-01-28 19:55 METAR KOKV 290055Z AUTO 00000KT 10SM CLR M04/M15 A3031 RMK AO2 =
2015-01-28 19:35 METAR KOKV 290035Z AUTO 00000KT 10SM CLR M04/M16 A3030 RMK AO2 =
2015-01-28 19:15 METAR KOKV 290015Z AUTO 30006KT 10SM CLR M03/M16 A3030 RMK AO2 =
2015-01-28 18:55 METAR KOKV 282355Z AUTO 27003KT 10SM CLR M02/M16 A3030 RMK AO2 =
2015-01-28 18:35 METAR KOKV 282335Z AUTO 00000KT 10SM CLR M01/M16 A3029 RMK AO2 =
2015-01-28 18:15 METAR KOKV 282315Z AUTO 00000KT 10SM CLR M02/M15 A3029 RMK AO2 =
2015-01-28 17:55 METAR KOKV 282255Z AUTO 30007KT 10SM CLR M02/M14 A3028 RMK AO2 =
2015-01-28 17:35 METAR KOKV 282235Z AUTO 30005KT 10SM CLR 00/M16 A3027 RMK AO2 =
2015-01-28 17:15 METAR KOKV 282215Z AUTO 30005KT 10SM CLR 00/M16 A3027 RMK AO2 =
2015-01-28 16:55 METAR KOKV 282155Z AUTO 30008KT 10SM CLR 00/M17 A3026 RMK AO2 =
2015-01-28 16:35 METAR KOKV 282135Z AUTO 31007KT 10SM CLR 01/M19 A3026 RMK AO2 =
2015-01-28 16:15 METAR KOKV 282115Z AUTO 32006KT 10SM CLR 01/M18 A3025 RMK AO2 =
2015-01-28 15:55 METAR KOKV 282055Z AUTO 32008KT 10SM CLR 01/M20 A3024 RMK AO2 =
2015-01-28 15:35 METAR KOKV 282035Z AUTO 31009KT 10SM CLR 01/M16 A3024 RMK AO2 =
2015-01-28 14:55 METAR KOKV 281955Z AUTO 33011G19KT 10SM CLR 01/M17 A3022 RMK AO2 =
2015-01-28 14:35 METAR KOKV 281935Z AUTO 31013G20KT 10SM CLR 01/M17 A3022 RMK AO2 =
2015-01-28 14:15 METAR KOKV 281915Z AUTO 31011G17KT 10SM CLR 01/M16 A3022 RMK AO2 =
2015-01-28 13:55 METAR KOKV 281855Z AUTO 31014KT 10SM CLR 01/M16 A3022 RMK AO2 =
2015-01-28 13:35 METAR KOKV 281835Z AUTO 30017KT 10SM CLR 00/M15 A3022 RMK AO2 =
2015-01-28 13:15 METAR KOKV 281815Z AUTO 31013G19KT 10SM CLR 00/M16 A3023 RMK AO2 =
2015-01-28 12:55 METAR KOKV 281755Z AUTO 31015G23KT 10SM CLR 00/M15 A3024 RMK AO2 =
2015-01-28 12:35 METAR KOKV 281735Z AUTO 31019G23KT 10SM CLR 00/M15 A3023 RMK AO2 =
2015-01-28 12:15 METAR KOKV 281715Z AUTO 31020G24KT 10SM CLR 00/M16 A3024 RMK AO2 =
2015-01-28 11:55 METAR KOKV 281655Z AUTO 31012G15KT 10SM CLR 00/M17 A3025 RMK AO2 =
2015-01-28 11:35 METAR KOKV 281635Z AUTO 32014G23KT 10SM CLR M01/M16 A3025 RMK AO2 =
2015-01-28 11:15 METAR KOKV 281615Z AUTO 33012G17KT 10SM CLR M01/M16 A3025 RMK AO2 =
2015-01-28 10:55 METAR KOKV 281555Z AUTO 32015G21KT 310V010 10SM CLR M01/M16 A3025 RMK AO2 =
2015-01-28 10:35 METAR KOKV 281535Z AUTO 34008KT 310V020 10SM CLR M02/M16 A3025 RMK AO2 =
2015-01-28 10:15 METAR KOKV 281515Z AUTO 31012G18KT 10SM CLR M02/M15 A3025 RMK AO2 =
2015-01-28 09:55 METAR KOKV 281455Z AUTO 32010G14KT 10SM CLR M02/M15 A3025 RMK AO2 =
2015-01-28 09:35 METAR KOKV 281435Z AUTO 32010G18KT 10SM CLR M03/M15 A3023 RMK AO2 =
2015-01-28 09:15 METAR KOKV 281415Z AUTO 32009G15KT 10SM CLR M03/M15 A3022 RMK AO2 =
2015-01-28 08:55 METAR KOKV 281355Z AUTO 31010G16KT 10SM CLR M04/M15 A3022 RMK AO2 =
2015-01-28 08:35 METAR KOKV 281335Z AUTO 32012G15KT 10SM CLR M04/M15 A3021 RMK AO2 =
2015-01-28 08:15 METAR KOKV 281315Z AUTO 32012KT 10SM CLR M05/M14 A3020 RMK AO2 =
2015-01-28 07:55 METAR KOKV 281255Z AUTO 31009KT 10SM CLR M06/M14 A3019 RMK AO2 =
2015-01-28 07:35 METAR KOKV 281235Z AUTO 32007KT 10SM CLR M06/M14 A3018 RMK AO2 =

Support USWX by starting your Amazon purchase here.